Timeline UpdatesTrip UpdatesNews PostsPvt PostsTravel TipsAdmin PostsConv PostsFollowed PostsChat RequestsBlog PostsPNR Posts

Disclaimer
Search
 
 
Tue Jul 29, 2014 10:08:34 ISTHomeTrainsΣChainsAtlasPNRForumGalleryNewsFAQTripsMembersLoginFeedback
No Recent News for this Train
Other Trains in the News **new
Latest...
Temporary Stoppage at Mahadevsal Station every Sunday and Monday from 23.07.2013 to 21.08.2013 during Shravani Melaa
Tue Jul 23, 2013 (10:09AM)
⇐ Return Journey: Train# 18029

18030/Shalimar-Mumbai LTT [Kurla] Express

Jul 01 2013 (4:41PM)
Change Departure Station:
Change Arrival Station:
Post a Train Travel TipPost a Train Travel Tip **new
Post a Comment/Question/Picture/VideoPost a Comment/Question/Picture/Video
Pantry/Catering
✕ NO Pantry Car
✓ Catering Avbl
RSA - Rake Sharing
Rake/Coach Composition
LOCO-HCPV-HCPV-SLR-GS-S13-S12-S11-S10-S9-S8-S7-S6-S5-S4-S3-S2-S1-B1-A1-GS-SLR-HCPV-HCPV
Loco
WAP-4 of Howrah shed (ER)
News    PNR    Forum    Time-Table    Availability    Fare Chart    Map    Arr/Dep History    Trips    Gallery    ΣChains    X/O    Timeline    
Travel Time: 0h 34m    0 halts    Distance: 39 km    Avg Speed: 68 km/hr
Type: Mail/Express
Zone: SER/South Eastern
Departs @ 17:50 (Avg 6m late)
Platform# ???
SMTWTFS
Kharagpur Junction/KGP 
Arrives @ 18:24 (Avg 5m late)
Platform# ???
SMTWTFS
Jhargram/JGM 

0 halts. 5 intermediate Stations between Kharagpur Junction and Jhargram

Show ALL intermediate Stations  Show Old Time-Table

#CodeStation NameX/OArrivesAvgDepartsAvgHaltPFDay#KmSpeedElevZoneAddress
1SHMKolkata Shalimar (2)  -15:00+211-112.3265mSERSHIBPUR . DIST- Howrah, West Bengal
2SRCKolkata Santragachi Junction (6)  15:11+615:12+71m11-107.6627mSERDist: Howrah - 711104, West Bengal
3ULBUluberia (6)O  15:36+1015:37+131m11-82.84910mSERdist - howrah, West Bengal
4MCAMecheda (6)X  16:09+916:10+211m--1-56.82610mSERdist - purba Medinipur, West Bengal
5PKUPanskura Junction (6)X  16:39+816:40+211m--1-44.4489mSERPanskura, West Bengal
6KGP»Kharagpur Junction (10)»X  17:35+817:50+615m--10.06942mSERKharagpur, West Bengal
7JGM•Jhargram (4)•X  18:24+518:25+61m--139.18082mSERJhargram, West Bengal
8CKUChakulia (4)  18:47+618:48+71m--168.380126mSERChakulia, Jharkhand
9GTSGhatsila (3)  19:11+619:12+71m--198.955103mSEREast Singhbhum, Jharkhand
10GUDGaludih (4)  19:23+319:24+41m--1108.941120mSEREast Singhbhum, Jharkhand
11RHERakha Mines (2)  19:34+219:35+31m--1115.839118mSEREast Singhbhum, Jharkhand
12TATATatanagar Junction (5)X  20:05+820:10+105m--1135.162164mSER91-657-2423026, Jharkhand
13SINISini Junction (3)  20:36+1620:37+171m--1162.057182mSERNational Highway 33, Jharkhand
14RKSNRajkharsawan Junction (3)  20:53+1620:54+161m--1177.371189mSERSaraikela Kharswan District, Jharkhand
15CKPChakradharpur (3)X  21:11+1921:16+205m11197.384235mSERChakradharpur (West Singhbhum), Jharkhand
16SWRSonuaX  21:31+2821:32+291m--1218.364287mSERSonua, Jharkhand
17GOLGoilkera (2)X  21:44+2921:45+301m--1231.155333mSERGoilkera, Jharkhand
18MOUManoharpur  22:15+2622:16+271m--1258.677228mSERManoharpur, Jharkhand
19BNDMBondamunda (2)  22:42+3622:43+341m--1291.920213mSERRourkela, Odisha
20ROURourkela Junction (5)X  23:03+2423:13+2510m21298.466198mSERRourkela, Odisha
21GPRaj Gangpur (3)  23:40+2723:41+281m11328.274237mSERRaj Ganpur, Odisha
22BMBBamra (3)  00:09+2800:10+291m--2362.855259mSERBamra PH : 06642-229268, Odisha
23JSGJharsuguda Junction (5)X  00:50+2400:55+275m12399.378236mSERJharsuguda, Odisha
24BRJNBrajrajnagarX  01:04+3101:05+321m--2411.059212mSECRBrajrajnagar, Odisha
25BPHBelpahar  01:14+3201:15+341m--2419.985235mSECRBelpahar, Odisha
26RIGRaigarh (3)  01:51+3901:56+425m--2471.089220mSECRRaigarh, Chhattisgarh
27KHSKharsia  02:19+5402:20+551m--2504.971259mSECRNational Highway 200, Chhattisgarh
28SKTSakti (4)  02:33+5602:34+571m--2520.376237mSECRJanjgir-Champa, Chhattisgarh
29CPHChampa Junction (3)X  02:58+5903:03+575m--2550.765264mSECRNational Highway 200 (07819-245767), Chhattisgarh
30NIANailaX  03:13+5903:14+1:001m--2561.669273mSECRJanjgir, Chhattisgarh
31AKTAkaltara (4)  03:27+5903:28+1:001m--2576.529284mSECRDist. Janjgir Champa, Chhattisgarh
32BSPBilaspur Junction (8)  04:25+2804:45+3520m32603.749271mSECRBilaspur, Chhattisgarh
33BYLBelha  05:04+3305:05+331m--2619.377269mSECRCollege Road, Chhattisgarh
34BYTBhatapara (4)  05:29+3505:30+361m--2649.982270mSECRBanjari Road, Chhattisgarh
35TLDTilda (3)  05:49+3705:50+381m12676.051291mSECRBanjari Rd, Chhattisgarh
36RRaipur Junction (6)X  06:35+3406:45+3610m12714.270297mSECRRaipur, Chhattisgarh
37DBECDevbaloda CharodaX  07:02+1:2607:03+1:261m--2734.135310mSECRBhilai, Chhattisgarh
38BIABhilai (2)X  07:09+3807:10+391m--2737.540309mSECRBhilai, Chhattisgarh
39BPHBBhilai Power House (3)X  07:17+5807:18+581m--2742.224312mSECRBhilai, Chhattisgarh
40BQRBhilai Nagar (2)X  07:29+3607:30+371m--2746.618298mSECRBhilai, Chhattisgarh
41DURGDurg Junction (6)X  07:45+3007:55+3010m--2751.187299mSECRPh: 91-788-2322059, Chhattisgarh
42RJNRaj Nandgaon (3)  08:16+3908:21+405m--2781.582313mSECRRajnandgaon, Chhattisgarh
43DGGDongargarh (2)  08:44+4508:45+491m--2813.160353mSECRDongargarh, Chhattisgarh
44SKSSalekasa (2)  09:21+5309:22+561m--2848.874312mSECRRajnandgaon, Chhattisgarh
45AGNAmgaon (2)  09:34+5609:35+581m--2863.646317mSECRGondia, Maharashtra
46GGondia Junction (7)X  10:05+5110:15+5710m--2886.488316mSECRGondia 441601, Maharashtra
47TROTirora (3)X  10:35+1:0210:36+1:041m--2915.768282mSECRDist Gondiya, Maharashtra
48TMRTumsar Road (3)X  10:54+1:0110:55+1:011m--2936.063267mSECRBhandara, Maharashtra
49BRDBhandara Road (2)  11:12+1:0111:13+1:021m--2954.076266mSECRState Highway 252, Maharashtra
50KPKamptee (3)X  11:51+1:0111:52+1:021m--21001.931290mSECRMH 441001, Maharashtra
51ITRItwari (3)O  12:12+5812:13+1:081m--21012.44306mSECRNagpur, Maharashtra
52NGPNagpur Junction (8)X  13:15+2813:40+2825m721016.223314mCRNagpur 440001, Maharashtra
53AJNIAjni (3)  13:48+3513:49+361m--21019.282310mCRNagpur 440003, Maharashtra
54SNISindi (2)  14:21+3914:22+411m--21063.157258mCRWardha, Maharashtra
55SEGMSewagram Junction (5)X  14:53+3414:54+351m--21092.420279mCRWardha, Maharashtra
56WRWardha Junction  15:02+3315:05+333m221095.084289mCRWardha 442001, Maharashtra
57PLOPulgaon Junction (3)  15:26+3515:27+371m221124.670273mCRPulgaon, Maharashtra
58DMNDhamangaon (2)  15:44+3615:45+371m--21144.562300mCRDhamangaon, Maharashtra
59CNDChandur (2)X  16:01+3516:02+361m--21161.230331mCRAmravati Distt, Maharashtra
60BDBadnera Junction (4)  17:00+2017:05+215m121190.090335mCRBadnera (Amravati) 444701, Maharashtra
61MZRMurtizapur (3)  17:33+2817:35+282m--21231.774303mCRMurtajapur, Maharashtra
62AKAkola Junction (7)  18:05+2718:10+275m121268.986284mCRAkola-444001, Maharashtra
63PSParas (2)  18:24+3018:25+301m--21288.974282mCRAkola, Maharashtra
64SEGShegaon (2)  18:39+3218:40+331m--21306.182281mCRShegaon 444203, Maharashtra
65JMJalamb Junction (3)X  18:49+3418:50+371m--21318.582259mCRJalamb, Maharashtra
66NNNanduraX  18:59+3919:00+411m--21330.770267mCRNandura, Maharashtra
67MKUMalkapur (2)X  19:24+3919:25+401m121358.662252mCRMalkapur, Maharashtra
68BDWDBodwadX  19:44+4019:45+411m--21378.240294mCRBodwad, Maharashtra
69BSLBhusaval Junction (8)X  20:30+3120:45+3215m521408.560208mCRBhusaval 425201, Maharashtra
70JLJalgaon Junction (4)  21:09+3821:10+421m221432.684213mCRJalgaon 425001, Maharashtra
71PCPachora Junction (4)X  21:44+4421:45+451m--21480.393264mCRPachora 424201, Maharashtra
72CSNChalisgaon Junction (3)  22:14+5222:15+531m--21525.187352mCRChalisgaon 424101, Maharashtra
73NGNNandgaon (3)  22:44+5722:45+581m--21567.356476mCRNandgaon, Maharashtra
74MMRManmad Junction (6)  23:12+5723:15+1:013m321592.777580mCRManmad 423104, Maharashtra
75LSLasalgaon (3)X  23:34+1:0223:35+1:031m--21617.266592mCRLasalgaon, Maharashtra
76NKNasik Road (3)X  00:19+5400:20+571m331665.438563mCRNashik 422101, Maharashtra
77DVLDevlali (3)X  00:29+5700:30+581m231671.234561mCRDist. Nashik 422401, Maharashtra
78IGPIgatpuri (4)XO  01:49+2701:50+351m--31716.118589mCRIgatpuri 422403, Maharashtra
79KSRAKasara (4)X  02:39+3102:40+331m--31730.558290mCRDist. Thane 421602, Maharashtra
80KYNKalyan Junction (8)  03:50+3103:55+475m631797.98710mCRKalyan 421301, Maharashtra
81TNAThane (10)  04:09+3704:10+381m831818.12510mCRThane, Maharashtra
82LTTMumbai Lokmanya Tilak Terminus (5)  04:50+33-331834.6-7mCRMumbai, Maharashtra
Scroll to Top
Scroll to Bottom